createdAt,value
2023-02-23T00:01:57.235Z,109.32
2023-02-23T00:04:26.401Z,108.00
2023-02-23T00:06:54.561Z,104.47
2023-02-23T00:09:25.929Z,106.93
2023-02-23T00:11:56.044Z,106.03
2023-02-23T00:14:28.022Z,102.35
2023-02-23T00:17:00.113Z,109.15
2023-02-23T00:19:28.608Z,106.95
2023-02-23T00:21:58.893Z,113.43
2023-02-23T00:24:28.045Z,112.22
2023-02-23T00:26:56.426Z,107.35
2023-02-23T00:29:25.772Z,111.60
2023-02-23T00:31:56.100Z,108.20
2023-02-23T00:34:25.770Z,109.50
2023-02-23T00:36:55.554Z,111.45
2023-02-23T00:39:25.614Z,106.53
2023-02-23T00:41:54.948Z,101.97
2023-02-23T00:44:24.849Z,106.07
2023-02-23T00:46:53.686Z,104.22
2023-02-23T00:49:23.216Z,106.57
2023-02-23T00:51:53.213Z,109.60
2023-02-23T00:54:23.046Z,103.53
2023-02-23T00:56:51.234Z,101.38
2023-02-23T00:59:20.366Z,100.28
2023-02-23T01:01:48.594Z,101.35
2023-02-23T01:04:17.478Z,101.45
2023-02-23T01:06:46.414Z,98.18
2023-02-23T01:09:22.070Z,103.07
2023-02-23T01:11:50.284Z,103.43
2023-02-23T01:14:18.334Z,105.70
2023-02-23T01:16:46.362Z,104.47
2023-02-23T01:19:14.418Z,105.20
2023-02-23T01:21:44.064Z,107.63
2023-02-23T01:24:13.357Z,104.20
2023-02-23T01:26:45.049Z,106.45
2023-02-23T01:29:15.636Z,109.85
2023-02-23T01:31:46.034Z,112.22
2023-02-23T01:34:15.711Z,111.13
2023-02-23T01:36:45.451Z,106.70
2023-02-23T01:39:15.142Z,107.90
2023-02-23T01:41:44.811Z,109.72
2023-02-23T01:44:47.941Z,114.18
2023-02-23T01:47:17.246Z,118.78
2023-02-23T01:49:45.664Z,118.28
2023-02-23T01:52:16.593Z,118.43
2023-02-23T01:54:50.648Z,120.63
2023-02-23T01:57:24.868Z,124.72
2023-02-23T01:59:53.771Z,123.93
2023-02-23T02:02:32.838Z,124.10
2023-02-23T02:05:01.881Z,121.38
2023-02-23T02:07:35.292Z,125.68
2023-02-23T02:10:39.358Z,120.55
2023-02-23T02:13:14.190Z,120.18
2023-02-23T02:16:02.422Z,120.55
2023-02-23T02:18:38.917Z,118.03
2023-02-23T02:21:31.812Z,117.38
2023-02-23T02:24:47.865Z,117.00
2023-02-23T02:27:28.190Z,117.30
2023-02-23T02:30:26.403Z,119.20
2023-02-23T02:33:26.800Z,118.30
2023-02-23T02:36:19.446Z,116.80
2023-02-23T02:38:56.696Z,117.57
2023-02-23T02:41:35.604Z,122.95
2023-02-23T02:44:12.922Z,117.07
2023-02-23T02:46:45.535Z,115.70
2023-02-23T02:49:18.949Z,116.57
2023-02-23T02:51:54.471Z,113.65
2023-02-23T02:54:30.026Z,119.55
2023-02-23T02:57:00.983Z,121.32
2023-02-23T02:59:46.984Z,121.97
2023-02-23T03:02:35.746Z,120.50
2023-02-23T03:05:21.367Z,118.65
2023-02-23T03:08:23.435Z,120.93
2023-02-23T03:11:18.039Z,118.20
2023-02-23T03:14:15.037Z,118.35
2023-02-23T03:17:07.508Z,119.78
2023-02-23T03:19:58.833Z,129.88
2023-02-23T03:22:50.800Z,119.22
2023-02-23T03:25:42.556Z,115.45
2023-02-23T03:28:33.223Z,116.50
2023-02-23T03:31:28.754Z,120.75
2023-02-23T03:34:21.492Z,123.82
2023-02-23T03:39:59.530Z,129.23
2023-02-23T03:42:51.516Z,126.25
2023-02-23T03:45:42.108Z,120.28
2023-02-23T03:48:30.777Z,115.72
2023-02-23T03:51:21.435Z,124.40
2023-02-23T03:54:11.485Z,127.90
2023-02-23T03:57:02.831Z,125.32
2023-02-23T03:59:53.775Z,126.57
2023-02-23T04:02:42.937Z,115.53
2023-02-23T04:05:33.648Z,121.97
2023-02-23T04:08:22.557Z,120.18
2023-02-23T04:11:12.776Z,114.93
2023-02-23T04:13:42.593Z,111.07
2023-02-23T04:16:10.846Z,108.10
2023-02-23T04:18:42.590Z,111.35
2023-02-23T04:21:10.673Z,105.05
2023-02-23T04:23:41.041Z,109.97
2023-02-23T04:26:09.230Z,103.53
2023-02-23T04:28:37.344Z,105.03
2023-02-23T04:31:05.643Z,100.97
2023-02-23T04:33:33.774Z,101.57
2023-02-23T04:36:03.192Z,101.63
2023-02-23T04:38:31.405Z,106.72
2023-02-23T04:40:59.467Z,111.47
2023-02-23T04:43:27.466Z,111.07
2023-02-23T04:45:55.600Z,116.50
2023-02-23T04:48:25.154Z,117.80
2023-02-23T04:50:53.989Z,117.00
2023-02-23T04:53:23.447Z,118.30
2023-02-23T04:55:51.732Z,118.70
2023-02-23T04:58:19.797Z,118.55
2023-02-23T05:00:48.001Z,114.60
2023-02-23T05:03:17.466Z,108.55
2023-02-23T05:05:46.144Z,105.78
2023-02-23T05:08:14.185Z,108.22
2023-02-23T05:10:43.591Z,110.25
2023-02-23T05:13:11.651Z,116.95
2023-02-23T05:15:39.754Z,113.10
2023-02-23T05:18:08.234Z,111.43
2023-02-23T05:20:36.374Z,114.47
2023-02-23T05:23:05.181Z,118.55
2023-02-23T05:25:33.484Z,123.63
2023-02-23T05:28:03.425Z,115.78
2023-02-23T05:30:31.503Z,119.03
2023-02-23T05:32:59.559Z,123.18
2023-02-23T05:35:27.598Z,118.80
2023-02-23T05:37:55.776Z,121.22
2023-02-23T05:40:23.882Z,123.53
2023-02-23T05:42:51.954Z,125.15
2023-02-23T05:45:21.369Z,124.47
2023-02-23T05:47:49.578Z,121.93
2023-02-23T05:50:17.723Z,118.80
2023-02-23T05:52:45.805Z,112.80
2023-02-23T05:55:14.046Z,117.22
2023-02-23T05:57:42.712Z,116.30
2023-02-23T06:00:13.469Z,117.63
2023-02-23T06:02:43.023Z,117.53
2023-02-23T06:05:12.039Z,117.20
2023-02-23T06:07:40.308Z,118.05
2023-02-23T06:10:09.327Z,122.72
2023-02-23T06:12:37.467Z,117.15
2023-02-23T06:15:06.346Z,120.72
2023-02-23T06:17:34.401Z,124.60
2023-02-23T06:20:04.825Z,112.30
2023-02-23T06:22:32.898Z,116.05
2023-02-23T06:25:02.529Z,116.13
2023-02-23T06:27:30.479Z,120.82
2023-02-23T06:29:58.486Z,126.30
2023-02-23T06:32:27.005Z,121.85
2023-02-23T06:34:55.093Z,125.60
2023-02-23T06:37:24.511Z,119.95
2023-02-23T06:39:52.523Z,122.35
2023-02-23T06:42:20.589Z,123.90
2023-02-23T06:44:48.608Z,121.25
2023-02-23T06:47:16.638Z,122.63
2023-02-23T06:49:44.703Z,123.13
2023-02-23T06:52:13.535Z,120.88
2023-02-23T06:54:43.114Z,115.78
2023-02-23T06:57:11.606Z,123.72
2023-02-23T06:59:39.647Z,122.30
2023-02-23T07:02:07.760Z,121.13
2023-02-23T07:04:35.774Z,118.55
2023-02-23T07:07:03.822Z,121.50
2023-02-23T07:09:32.249Z,114.90
2023-02-23T07:12:02.581Z,118.53
2023-02-23T07:14:30.743Z,111.05
2023-02-23T07:16:58.767Z,111.25
2023-02-23T07:19:26.832Z,120.40
2023-02-23T07:21:54.880Z,110.05
2023-02-23T07:24:23.309Z,108.07
2023-02-23T07:26:52.131Z,95.13
2023-02-23T07:29:24.039Z,105.18
2023-02-23T07:31:52.341Z,100.50
2023-02-23T07:34:20.445Z,84.60
2023-02-23T07:36:48.504Z,95.90
2023-02-23T07:39:16.556Z,88.57
2023-02-23T07:41:44.714Z,79.88
2023-02-23T07:44:13.277Z,83.97
2023-02-23T07:46:42.857Z,79.40
2023-02-23T07:49:10.889Z,76.20
2023-02-23T07:51:40.642Z,79.25
2023-02-23T07:54:08.690Z,59.33
2023-02-23T07:56:36.724Z,68.38
2023-02-23T07:59:04.914Z,59.38
2023-02-23T08:01:33.048Z,60.47
2023-02-23T08:04:02.637Z,64.50
2023-02-23T08:06:31.921Z,67.30
2023-02-23T08:09:00.687Z,66.88
2023-02-23T08:11:29.654Z,63.97
2023-02-23T08:14:00.134Z,63.97
2023-02-23T08:16:28.792Z,65.47
2023-02-23T08:18:59.426Z,56.33
2023-02-23T08:21:29.972Z,54.88
2023-02-23T08:23:58.145Z,57.55
2023-02-23T08:26:26.961Z,58.40
2023-02-23T08:28:55.564Z,58.80
2023-02-23T08:31:25.091Z,51.10
2023-02-23T08:33:54.377Z,51.17
2023-02-23T08:36:22.773Z,51.33
2023-02-23T08:38:54.357Z,51.20
2023-02-23T08:41:23.070Z,41.25
2023-02-23T08:43:51.111Z,39.03
2023-02-23T08:46:20.583Z,35.33
2023-02-23T08:48:48.637Z,34.83
2023-02-23T08:51:16.964Z,35.28
2023-02-23T08:53:45.028Z,32.25
2023-02-23T08:56:15.295Z,34.00
2023-02-23T08:58:44.134Z,33.88
2023-02-23T09:01:19.424Z,35.25
2023-02-23T09:03:47.656Z,31.60
2023-02-23T09:06:18.408Z,34.25
2023-02-23T09:08:47.026Z,33.85
2023-02-23T09:11:16.461Z,31.20
2023-02-23T09:13:45.114Z,28.80
2023-02-23T09:16:13.295Z,28.52
2023-02-23T09:18:42.165Z,27.50
2023-02-23T09:21:18.792Z,30.88
2023-02-23T09:23:48.232Z,27.05
2023-02-23T09:26:18.748Z,22.77
2023-02-23T09:28:47.465Z,23.13
2023-02-23T09:31:20.446Z,24.42
2023-02-23T09:33:48.703Z,26.33
2023-02-23T09:36:18.591Z,26.58
2023-02-23T09:38:47.686Z,29.33
2023-02-23T09:41:57.647Z,26.98
2023-02-23T09:44:42.425Z,29.77
2023-02-23T09:47:32.604Z,29.17
2023-02-23T09:50:03.778Z,24.73
2023-02-23T09:52:40.159Z,28.77
2023-02-23T09:55:10.995Z,26.60
2023-02-23T09:57:42.954Z,26.35
2023-02-23T10:00:25.377Z,28.70
2023-02-23T10:03:17.039Z,25.42
2023-02-23T10:05:49.228Z,22.23
2023-02-23T10:08:34.564Z,22.58
2023-02-23T10:11:10.034Z,22.13
2023-02-23T10:13:54.051Z,22.13
2023-02-23T10:16:25.711Z,23.17
2023-02-23T10:19:00.438Z,21.38
2023-02-23T10:21:35.273Z,23.52
2023-02-23T10:24:07.234Z,26.90
2023-02-23T10:26:44.049Z,26.17
2023-02-23T10:29:23.647Z,23.13
2023-02-23T10:31:58.001Z,24.48
2023-02-23T10:34:29.030Z,24.27
2023-02-23T10:37:01.718Z,24.08
2023-02-23T10:39:31.435Z,26.88
2023-02-23T10:42:01.535Z,22.27
2023-02-23T10:44:31.275Z,26.85
2023-02-23T10:47:02.219Z,27.75
2023-02-23T10:49:42.181Z,28.48
2023-02-23T10:52:13.740Z,26.67
2023-02-23T10:54:45.749Z,24.13
2023-02-23T10:57:21.397Z,24.65
2023-02-23T11:00:30.586Z,25.67
2023-02-23T11:02:59.688Z,23.52
2023-02-23T11:05:37.413Z,25.02
2023-02-23T11:08:26.312Z,25.35
2023-02-23T11:11:00.143Z,27.08
2023-02-23T11:13:29.577Z,23.13
2023-02-23T11:16:03.571Z,26.42
2023-02-23T11:18:32.174Z,30.50
2023-02-23T11:21:00.637Z,27.15
2023-02-23T11:23:32.761Z,29.42
2023-02-23T11:26:03.152Z,26.50
2023-02-23T11:28:34.613Z,27.25
2023-02-23T11:31:05.691Z,29.27
2023-02-23T11:33:37.416Z,30.38
2023-02-23T11:36:17.738Z,30.08
2023-02-23T11:38:46.301Z,32.72
2023-02-23T11:41:23.194Z,23.05
2023-02-23T11:43:52.711Z,27.55
2023-02-23T11:46:23.706Z,25.58
2023-02-23T11:48:55.173Z,28.13
2023-02-23T11:51:28.973Z,31.17
2023-02-23T11:53:57.606Z,32.13
2023-02-23T11:56:27.152Z,34.15
2023-02-23T11:58:58.622Z,36.58
2023-02-23T12:01:41.836Z,35.20
2023-02-23T12:04:10.858Z,29.77
2023-02-23T12:06:41.159Z,31.98
2023-02-23T12:09:19.428Z,30.83
2023-02-23T12:11:52.193Z,32.08
2023-02-23T12:14:27.977Z,32.88
2023-02-23T12:17:05.163Z,35.58
2023-02-23T12:19:38.036Z,32.50
2023-02-23T12:22:12.253Z,32.65
2023-02-23T12:24:45.674Z,39.50
2023-02-23T12:27:17.313Z,38.03
2023-02-23T12:30:03.454Z,36.58
2023-02-23T12:32:47.839Z,37.75
2023-02-23T12:35:20.373Z,37.38
2023-02-23T12:40:23.946Z,40.13
2023-02-23T12:43:00.041Z,36.40
2023-02-23T12:45:36.369Z,38.22
2023-02-23T12:48:16.195Z,41.13
2023-02-23T12:50:51.311Z,43.50
2023-02-23T12:53:23.469Z,40.85
2023-02-23T12:56:04.536Z,40.00
2023-02-23T12:58:41.953Z,43.08
2023-02-23T13:01:14.815Z,38.63
2023-02-23T13:04:24.152Z,32.83
2023-02-23T13:06:58.745Z,33.88
2023-02-23T13:09:40.362Z,31.85
2023-02-23T13:12:24.084Z,32.38
2023-02-23T13:15:01.311Z,34.00
2023-02-23T13:17:37.358Z,34.58
2023-02-23T13:20:15.734Z,29.60
2023-02-23T13:22:48.211Z,25.80
2023-02-23T13:25:27.216Z,26.15
2023-02-23T13:27:59.776Z,23.63
2023-02-23T13:30:32.418Z,25.30
2023-02-23T13:33:03.496Z,25.20
2023-02-23T13:35:39.113Z,26.73
2023-02-23T13:38:15.584Z,25.70
2023-02-23T13:40:49.722Z,25.02
2023-02-23T13:43:24.530Z,24.83
2023-02-23T13:46:01.665Z,29.30
2023-02-23T13:48:55.208Z,29.40
2023-02-23T13:51:33.786Z,28.15
2023-02-23T13:54:06.150Z,24.90
2023-02-23T13:59:09.633Z,26.77
2023-02-23T14:01:40.234Z,27.38
2023-02-23T14:04:15.642Z,26.60
2023-02-23T14:06:56.717Z,25.73
2023-02-23T14:09:31.125Z,24.92
2023-02-23T14:12:06.075Z,24.73
2023-02-23T14:14:44.449Z,20.13
2023-02-23T14:17:56.281Z,22.65
2023-02-23T14:20:50.623Z,20.63
2023-02-23T14:23:34.105Z,20.63
2023-02-23T14:26:16.475Z,19.27
2023-02-23T14:28:47.713Z,21.75
2023-02-23T14:31:22.626Z,19.00
2023-02-23T14:33:57.846Z,19.80
2023-02-23T14:36:44.502Z,21.13
2023-02-23T14:39:24.416Z,21.92
2023-02-23T14:41:56.028Z,21.58
2023-02-23T14:44:31.061Z,17.58
2023-02-23T14:47:04.896Z,24.20
2023-02-23T14:49:36.945Z,19.33
2023-02-23T14:52:10.670Z,16.42
2023-02-23T14:54:41.395Z,15.90
2023-02-23T14:57:19.313Z,17.25
2023-02-23T14:59:53.099Z,14.45
2023-02-23T15:02:24.135Z,15.20
2023-02-23T15:04:52.652Z,14.05
2023-02-23T15:07:27.977Z,16.80
2023-02-23T15:10:00.069Z,13.98
2023-02-23T15:12:30.674Z,17.83
2023-02-23T15:15:02.112Z,17.88
2023-02-23T15:17:33.398Z,17.03
2023-02-23T15:20:15.938Z,20.20
2023-02-23T15:22:47.993Z,16.73
2023-02-23T15:25:20.436Z,16.15
2023-02-23T15:27:49.410Z,23.63
2023-02-23T15:30:27.746Z,22.83
2023-02-23T15:33:03.921Z,30.67
2023-02-23T15:35:37.901Z,28.30
2023-02-23T15:38:17.948Z,40.42
2023-02-23T15:40:58.734Z,28.83
2023-02-23T15:43:29.491Z,34.78
2023-02-23T15:46:03.522Z,32.80
2023-02-23T15:48:42.679Z,32.20
2023-02-23T15:51:26.154Z,26.30
2023-02-23T15:53:55.367Z,27.98
2023-02-23T15:56:28.264Z,33.03
2023-02-23T15:58:59.157Z,28.75
2023-02-23T16:01:30.364Z,29.15
2023-02-23T16:04:02.487Z,32.17
2023-02-23T16:06:35.191Z,27.08
2023-02-23T16:09:19.911Z,34.85
2023-02-23T16:11:56.276Z,31.02
2023-02-23T16:14:25.566Z,31.55
2023-02-23T16:17:09.891Z,26.17
2023-02-23T16:19:41.292Z,27.17
2023-02-23T16:22:21.447Z,29.90
2023-02-23T16:24:57.782Z,28.50
2023-02-23T16:27:29.309Z,33.35
2023-02-23T16:30:01.280Z,33.27
2023-02-23T16:32:38.737Z,31.13
2023-02-23T16:35:16.005Z,32.05
2023-02-23T16:37:59.995Z,30.98
2023-02-23T16:40:28.254Z,28.20
2023-02-23T16:42:59.521Z,33.63
2023-02-23T16:45:29.670Z,37.67
2023-02-23T16:48:02.158Z,31.13
2023-02-23T16:52:58.667Z,27.67
2023-02-23T16:55:28.310Z,29.63
2023-02-23T16:58:00.572Z,34.55
2023-02-23T17:00:31.157Z,33.63
2023-02-23T17:03:00.659Z,42.05
2023-02-23T17:05:30.164Z,40.35
2023-02-23T17:07:59.185Z,37.15
2023-02-23T17:10:31.111Z,42.25
2023-02-23T17:13:02.603Z,46.50
2023-02-23T17:15:33.509Z,54.38
2023-02-23T17:18:01.494Z,44.70
2023-02-23T17:20:29.897Z,37.85
2023-02-23T17:22:59.894Z,33.22
2023-02-23T17:25:28.558Z,33.75
2023-02-23T17:27:57.862Z,34.67
2023-02-23T17:30:28.460Z,44.47
2023-02-23T17:32:58.675Z,28.95
2023-02-23T17:35:26.901Z,28.90
2023-02-23T17:37:55.570Z,31.90
2023-02-23T17:40:28.859Z,25.60
2023-02-23T17:42:58.166Z,29.08
2023-02-23T17:45:28.288Z,33.95
2023-02-23T17:47:57.078Z,28.13
2023-02-23T17:50:27.046Z,26.85
2023-02-23T17:52:55.421Z,25.20
2023-02-23T17:55:23.643Z,29.52
2023-02-23T17:57:51.799Z,23.45
2023-02-23T18:00:20.821Z,23.10
2023-02-23T18:02:50.269Z,28.90
2023-02-23T18:05:18.550Z,21.27
2023-02-23T18:07:48.433Z,25.40
2023-02-23T18:10:17.513Z,26.92
2023-02-23T18:12:45.917Z,24.27
2023-02-23T18:15:14.222Z,23.98
2023-02-23T18:17:42.477Z,25.63
2023-02-23T18:20:15.247Z,24.48
2023-02-23T18:22:44.079Z,24.73
2023-02-23T18:25:21.541Z,19.90
2023-02-23T18:27:54.149Z,18.88
2023-02-23T18:30:23.491Z,20.77
2023-02-23T18:32:52.661Z,22.58
2023-02-23T18:35:22.304Z,19.05
2023-02-23T18:37:50.853Z,21.75
2023-02-23T18:40:24.000Z,18.15
2023-02-23T18:42:52.139Z,20.48
2023-02-23T18:45:20.618Z,20.92
2023-02-23T18:47:48.934Z,18.38
2023-02-23T18:50:19.496Z,18.63
2023-02-23T18:52:51.028Z,22.20
2023-02-23T18:55:20.136Z,19.92
2023-02-23T18:57:48.752Z,21.13
2023-02-23T19:00:19.050Z,18.02
2023-02-23T19:02:47.837Z,19.75
2023-02-23T19:05:20.742Z,22.23
2023-02-23T19:07:51.150Z,19.08
2023-02-23T19:10:19.461Z,22.10
2023-02-23T19:12:47.572Z,17.73
2023-02-23T19:15:15.766Z,22.92
2023-02-23T19:17:45.269Z,22.00
2023-02-23T19:20:14.881Z,19.15
2023-02-23T19:22:43.280Z,19.70
2023-02-23T19:25:14.814Z,19.25
2023-02-23T19:27:44.019Z,20.88
2023-02-23T19:30:14.702Z,26.33
2023-02-23T19:32:43.339Z,18.25
2023-02-23T19:35:15.201Z,24.05
2023-02-23T19:37:48.714Z,17.23
2023-02-23T19:40:20.808Z,21.95
2023-02-23T19:42:49.544Z,26.55
2023-02-23T19:45:18.946Z,18.27
2023-02-23T19:47:47.273Z,20.90
2023-02-23T19:50:17.419Z,18.60
2023-02-23T19:52:46.241Z,31.58
2023-02-23T19:55:20.318Z,19.42
2023-02-23T19:57:48.833Z,25.65
2023-02-23T20:00:17.766Z,23.40
2023-02-23T20:02:47.713Z,24.98
2023-02-23T20:05:17.773Z,23.20
2023-02-23T20:07:45.922Z,16.38
2023-02-23T20:10:16.337Z,21.35
2023-02-23T20:12:45.942Z,17.80
2023-02-23T20:15:15.424Z,21.45
2023-02-23T20:17:43.742Z,20.25
2023-02-23T20:20:13.321Z,19.90
2023-02-23T20:22:43.557Z,19.58
2023-02-23T20:25:15.582Z,17.55
2023-02-23T20:27:45.703Z,17.55
2023-02-23T20:30:15.026Z,15.60
2023-02-23T20:32:43.777Z,18.67
2023-02-23T20:35:14.166Z,13.93
2023-02-23T20:37:42.725Z,16.83
2023-02-23T20:40:18.346Z,21.92
2023-02-23T20:42:49.447Z,23.02
2023-02-23T20:45:20.682Z,24.00
2023-02-23T20:47:52.029Z,23.17
2023-02-23T20:50:21.690Z,19.50
2023-02-23T20:52:50.583Z,16.98
2023-02-23T20:55:20.146Z,26.30
2023-02-23T20:57:49.944Z,22.10
2023-02-23T21:00:22.686Z,20.92
2023-02-23T21:02:55.329Z,21.15
2023-02-23T21:05:25.293Z,19.95
2023-02-23T21:07:53.550Z,20.58
2023-02-23T21:10:21.853Z,20.58
2023-02-23T21:12:52.768Z,15.80
2023-02-23T21:15:20.909Z,24.88
2023-02-23T21:17:50.550Z,27.50
2023-02-23T21:20:20.918Z,20.88
2023-02-23T21:22:50.224Z,20.00
2023-02-23T21:25:21.066Z,24.50
2023-02-23T21:27:51.517Z,19.83
2023-02-23T21:30:22.503Z,17.60
2023-02-23T21:32:53.584Z,20.90
2023-02-23T21:35:22.502Z,18.40
2023-02-23T21:37:52.857Z,20.45
2023-02-23T21:40:23.369Z,13.13
2023-02-23T21:42:53.421Z,20.98
2023-02-23T21:45:21.749Z,15.52
2023-02-23T21:47:50.487Z,14.57
2023-02-23T21:50:20.528Z,23.08
2023-02-23T21:52:53.183Z,14.15
2023-02-23T21:55:22.271Z,15.73
2023-02-23T21:57:52.855Z,13.88
2023-02-23T22:00:22.861Z,17.52
2023-02-23T22:02:51.903Z,18.15
2023-02-23T22:05:20.963Z,20.38
2023-02-23T22:07:50.128Z,13.63
2023-02-23T22:10:19.590Z,21.10
2023-02-23T22:12:50.278Z,17.60
2023-02-23T22:15:20.210Z,13.07
2023-02-23T22:17:48.528Z,17.70
2023-02-23T22:20:20.181Z,15.98
2023-02-23T22:22:50.616Z,13.13
2023-02-23T22:25:21.023Z,18.85
2023-02-23T22:27:49.568Z,17.70
2023-02-23T22:30:22.782Z,13.82
2023-02-23T22:32:51.340Z,16.77
2023-02-23T22:35:19.999Z,15.30
2023-02-23T22:37:48.819Z,13.73
2023-02-23T22:40:17.300Z,15.60
2023-02-23T22:42:49.111Z,13.77
2023-02-23T22:45:18.060Z,15.15
2023-02-23T22:47:47.980Z,17.10
2023-02-23T22:50:19.333Z,16.20
2023-02-23T22:52:47.978Z,14.47
2023-02-23T22:55:16.332Z,15.35
2023-02-23T22:57:46.036Z,14.45
2023-02-23T23:00:17.642Z,16.80
2023-02-23T23:02:47.254Z,13.75
2023-02-23T23:05:15.992Z,17.52
2023-02-23T23:07:46.670Z,19.30
2023-02-23T23:10:15.704Z,14.65
2023-02-23T23:12:43.942Z,21.58
2023-02-23T23:15:17.550Z,17.27
2023-02-23T23:17:49.418Z,15.68
2023-02-23T23:20:22.852Z,20.45
2023-02-23T23:22:51.128Z,16.95
2023-02-23T23:25:23.141Z,13.85
2023-02-23T23:27:53.685Z,12.73
2023-02-23T23:30:26.075Z,20.30
2023-02-23T23:32:56.585Z,17.13
2023-02-23T23:35:26.154Z,15.05
2023-02-23T23:37:54.692Z,17.95
2023-02-23T23:40:24.903Z,13.32
2023-02-23T23:42:53.388Z,19.45
2023-02-23T23:45:25.924Z,17.45
2023-02-23T23:47:55.886Z,17.92
2023-02-23T23:50:27.465Z,16.42
2023-02-23T23:52:57.111Z,18.58
2023-02-23T23:55:31.385Z,18.60
2023-02-23T23:58:00.759Z,15.55
